Terminal Aerodrome Forecast
Issued by NWS Cleveland, OH

Home | Current Version | Previous Version | Text Only | Print | Product List | Glossary On
Versions: 1 2 3 4 5 6 7 8 9 10 11 12 13 14 15 16 17
000
FTUS41 KCLE 101720
TAFMFD
TAF
KMFD 101720Z 1018/1118 24008KT P6SM OVC030
     FM102000 23008KT P6SM OVC050
     FM110500 22005KT 5SM -SN OVC020
      TEMPO 1106/1108 3SM -SN OVC015
     FM110800 18005KT 2SM -SN OVC015
     FM111600 16012G20KT 6SM -SN OVC020=

USA.gov is the U.S. government's official web portal to all federal, state and local government web resources and services.